Portada
METAR-TAF:

METAR-TAF

Aeropuertos :

Aeropuerto de Valladolid

Valladolid, España

latitud: 41-43N, longitud: 004-51W, altitud: 849 m

Observación

El informe se hizo hace 23 minutos, a las 08:00 UTC
Viento 5 kt del este
Temperatura 2°C
Humedad 75%
Presión 1031 hPa
Visibilidad 10 km o más
sin nubes por debajo de 1500 m y sin presencia de cumulonimbus.

METAR: LEVD 220800Z 08005KT CAVOK 02/M02 Q1031

Hora: 09:23 (08:23 UTC)

Pronóstico

El informe se hizo hace 3 horas y 23 minutos, a las 05:00 UTC
Pronóstico válido del 22 a las 06 UTC al 23 a las 06 UTC
Viento 3 kt del este-sureste
Visibilidad 10 km o más
sin nubes por debajo de 1500 m y sin presencia de cumulonimbus.

TAF: LEVD 220500Z 2206/2306 11003KT CAVOK TX18/2216Z TNM01/2207Z

Observaciones y pronósticos meteorológicos de más de 4000 aeropuertos (mensajes METAR y TAF).

Los puntos amarillos y rojos representan las estaciones disponibles.

Ponga el ratón en el punto deseado para ver el nombre de la estación.

Haga clic para ver las observaciones y los pronósticos meteorológicos.

Para cambiar el mapa : haga clic en los botones verdes con una cruz de color negro para hacer un zoom, en el botón verde con un guión para alejar o en las flechas verdes para mapas adyacentes.


METAR-TAF: